Time;durP1;ratioP1;P1;durP2;ratioP2;P2;SDS_P1;SDS_P2;PMS_P1;PMS_P2;Temp;Humidity;BMP_temperature;BMP_pressure;BME280_temperature;BME280_humidity;BME280_pressure;Samples;Min_cycle;Max_cycle;Signal;HPM_P1;HPM_P2
2023/08/30 00:00:55;;;;;;;13.55;10.93;;;14.90;88.70;;;;;;4922458;29;20062;-78
2023/08/30 00:03:20;;;;;;;13.32;10.88;;;14.80;88.50;;;;;;4937210;29;20043;-79
2023/08/30 00:05:46;;;;;;;10.32;9.13;;;14.70;89.10;;;;;;4906723;28;20475;-78
2023/08/30 00:08:13;;;;;;;11.18;10.00;;;14.60;89.00;;;;;;4938806;29;20133;-79
2023/08/30 00:10:39;;;;;;;11.32;10.15;;;14.50;89.10;;;;;;4938520;29;20069;-79
2023/08/30 00:13:05;;;;;;;10.77;9.77;;;14.50;88.90;;;;;;4907108;29;20554;-79
2023/08/30 00:15:30;;;;;;;11.55;10.15;;;14.50;88.80;;;;;;4922831;29;20395;-79
2023/08/30 00:17:56;;;;;;;10.95;9.85;;;14.50;88.90;;;;;;4927382;28;20471;-78
2023/08/30 00:20:23;;;;;;;12.82;10.43;;;14.50;88.80;;;;;;4911597;28;20552;-79
2023/08/30 00:22:49;;;;;;;11.00;9.82;;;14.50;88.80;;;;;;4942084;28;20042;-79
2023/08/30 00:25:16;;;;;;;11.40;9.43;;;14.50;88.90;;;;;;4941823;28;20672;-79
2023/08/30 00:27:41;;;;;;;11.35;10.20;;;14.50;89.10;;;;;;4957770;28;20157;-79
2023/08/30 00:30:09;;;;;;;10.73;9.25;;;14.50;89.00;;;;;;4925545;28;20074;-79
2023/08/30 00:32:35;;;;;;;12.00;9.68;;;14.50;88.80;;;;;;4945382;29;20050;-79
2023/08/30 00:35:01;;;;;;;11.88;9.60;;;14.40;88.60;;;;;;4938136;29;20132;-79
2023/08/30 00:37:26;;;;;;;10.88;9.75;;;14.30;88.40;;;;;;4922272;29;20125;-79
2023/08/30 00:39:52;;;;;;;11.25;9.70;;;14.20;88.40;;;;;;4905985;29;20070;-79
2023/08/30 00:42:18;;;;;;;11.35;10.10;;;14.20;88.30;;;;;;4953239;28;20039;-79
2023/08/30 00:44:43;;;;;;;12.10;10.90;;;14.10;88.30;;;;;;4941099;28;20039;-79
2023/08/30 00:47:09;;;;;;;11.75;10.52;;;14.00;88.30;;;;;;4925462;28;20077;-79
2023/08/30 00:49:35;;;;;;;12.15;10.10;;;13.90;88.40;;;;;;4939447;28;20125;-79
2023/08/30 00:52:09;;;;;;;11.75;10.55;;;13.90;88.40;;;;;;4906584;29;20050;-79
2023/08/30 00:54:35;;;;;;;11.73;10.57;;;13.90;88.50;;;;;;4922295;29;20036;-79
2023/08/30 00:57:04;;;;;;;13.02;11.43;;;13.90;88.60;;;;;;4906357;29;20567;-79
2023/08/30 00:59:32;;;;;;;11.32;10.18;;;13.90;88.70;;;;;;4937864;29;20452;-79
2023/08/30 01:01:57;;;;;;;12.20;10.90;;;13.70;88.60;;;;;;4921990;29;20380;-80
2023/08/30 01:04:24;;;;;;;11.18;10.05;;;13.70;88.90;;;;;;4922363;29;20047;-79
2023/08/30 01:06:50;;;;;;;12.73;11.45;;;13.70;89.10;;;;;;4921063;29;20122;-78
2023/08/30 01:09:16;;;;;;;13.65;10.77;;;13.70;89.20;;;;;;4937704;29;20125;-79
2023/08/30 01:12:04;;;;;;;13.10;10.48;;;13.70;88.90;;;;;;4921997;29;20043;-79
2023/08/30 01:14:39;;;;;;;11.15;9.95;;;13.60;88.90;;;;;;4938265;29;20396;-79
2023/08/30 01:17:07;;;;;;;12.07;10.80;;;13.50;88.90;;;;;;4922109;28;20050;-79
2023/08/30 01:19:46;;;;;;;12.00;10.80;;;13.50;88.90;;;;;;4924937;29;20050;-79
2023/08/30 01:22:35;;;;;;;11.75;10.65;;;13.50;89.00;;;;;;4925630;28;20039;-78
2023/08/30 01:25:26;;;;;;;11.18;9.98;;;13.50;89.10;;;;;;4941839;28;20039;-79
2023/08/30 01:27:53;;;;;;;12.68;10.80;;;13.50;89.50;;;;;;4941523;29;20051;-79
2023/08/30 01:30:20;;;;;;;12.75;9.68;;;13.50;89.30;;;;;;4925741;29;20070;-79
2023/08/30 01:32:47;;;;;;;10.82;9.63;;;13.40;89.00;;;;;;4910216;29;20042;-79
2023/08/30 01:35:17;;;;;;;10.52;9.35;;;13.30;88.90;;;;;;4925604;29;20043;-79
2023/08/30 01:37:46;;;;;;;11.60;9.82;;;13.20;88.90;;;;;;4925445;28;20081;-79
2023/08/30 01:40:13;;;;;;;11.77;10.48;;;13.20;88.90;;;;;;4910231;29;20043;-79
2023/08/30 01:42:40;;;;;;;12.85;10.77;;;13.20;89.00;;;;;;4906532;29;20587;-79
2023/08/30 01:45:09;;;;;;;12.32;11.02;;;13.10;89.30;;;;;;4937977;29;20062;-79
2023/08/30 01:47:36;;;;;;;14.75;10.57;;;13.10;89.40;;;;;;4906660;29;20515;-79
2023/08/30 01:50:03;;;;;;;11.98;10.25;;;13.20;89.60;;;;;;4890658;29;20051;-79
2023/08/30 01:52:30;;;;;;;13.48;10.85;;;13.20;89.70;;;;;;4906475;29;20079;-79
2023/08/30 01:54:58;;;;;;;15.32;11.15;;;13.10;90.00;;;;;;4924201;28;20046;-79
2023/08/30 01:57:23;;;;;;;12.60;11.40;;;13.10;90.20;;;;;;4924857;29;20047;-79
2023/08/30 01:59:49;;;;;;;13.15;10.52;;;13.00;90.00;;;;;;4925210;29;20035;-79
2023/08/30 02:02:15;;;;;;;11.43;10.25;;;13.00;89.70;;;;;;4909086;29;20055;-79
2023/08/30 02:04:40;;;;;;;11.27;10.07;;;12.90;89.60;;;;;;4940640;29;20054;-79
2023/08/30 02:07:48;;;;;;;13.55;10.77;;;12.80;89.50;;;;;;4924873;29;20047;-79
2023/08/30 02:10:22;;;;;;;12.48;11.23;;;12.80;89.70;;;;;;4914965;29;20094;-79
2023/08/30 02:12:49;;;;;;;;;;;12.80;90.50;;;;;;4940119;29;20065;-79
2023/08/30 02:15:17;;;;;;;11.55;10.38;;;12.70;90.90;;;;;;4924905;29;20014;-79
2023/08/30 02:17:44;;;;;;;13.38;11.98;;;12.80;90.70;;;;;;4924601;29;20043;-79
2023/08/30 02:20:09;;;;;;;14.35;11.88;;;12.80;90.80;;;;;;4924878;29;20035;-80
2023/08/30 02:22:35;;;;;;;11.50;10.23;;;12.70;91.10;;;;;;4924940;29;20264;-78
2023/08/30 02:25:05;;;;;;;14.10;12.65;;;12.70;90.90;;;;;;4940303;29;20105;-79
2023/08/30 02:27:34;;;;;;;10.43;9.32;;;12.70;90.80;;;;;;4909383;29;20058;-79
2023/08/30 02:30:00;;;;;;;13.70;12.30;;;12.80;90.80;;;;;;4905039;29;20043;-79
2023/08/30 02:32:26;;;;;;;13.02;11.57;;;12.80;90.60;;;;;;4921368;29;20514;-79
2023/08/30 02:34:53;;;;;;;13.82;12.32;;;12.70;91.00;;;;;;4874527;29;20040;-79
2023/08/30 02:37:19;;;;;;;13.57;11.68;;;12.70;90.80;;;;;;4889813;29;20046;-79
2023/08/30 02:39:45;;;;;;;12.90;10.40;;;12.70;91.30;;;;;;4905270;29;20035;-80
2023/08/30 02:42:11;;;;;;;12.20;10.98;;;12.70;91.40;;;;;;4936814;29;20119;-79
2023/08/30 02:44:36;;;;;;;12.25;10.95;;;12.70;91.10;;;;;;4905011;29;20040;-79
2023/08/30 02:47:02;;;;;;;13.82;12.23;;;12.70;91.30;;;;;;4905094;29;20044;-79
2023/08/30 02:49:28;;;;;;;11.82;10.60;;;12.70;91.60;;;;;;4920798;29;20078;-79
2023/08/30 02:51:53;;;;;;;14.38;12.10;;;12.70;91.70;;;;;;4905097;29;20134;-79
2023/08/30 02:54:19;;;;;;;13.52;11.48;;;12.70;91.70;;;;;;4905077;29;20518;-79
2023/08/30 02:56:45;;;;;;;16.02;12.48;;;12.70;91.60;;;;;;4936523;29;20043;-79
2023/08/30 02:59:11;;;;;;;13.63;11.73;;;12.80;91.70;;;;;;4891394;29;20047;-79
2023/08/30 03:01:38;;;;;;;14.07;11.68;;;12.80;91.70;;;;;;4907958;29;20039;-79
2023/08/30 03:04:07;;;;;;;15.30;12.10;;;12.80;91.60;;;;;;4923803;29;20043;-79
2023/08/30 03:06:34;;;;;;;16.70;12.88;;;12.90;91.30;;;;;;4923753;29;20102;-79
2023/08/30 03:09:00;;;;;;;15.00;11.88;;;12.90;91.40;;;;;;4908421;29;20117;-79
2023/08/30 03:11:26;;;;;;;14.32;11.45;;;13.00;91.30;;;;;;4939795;28;20047;-79
2023/08/30 03:13:53;;;;;;;13.95;12.18;;;13.00;91.10;;;;;;4908315;29;20397;-79
2023/08/30 03:16:19;;;;;;;13.80;12.25;;;13.10;91.20;;;;;;4938336;29;20043;-79
2023/08/30 03:18:48;;;;;;;14.60;12.30;;;13.20;91.10;;;;;;4939134;29;20043;-79
2023/08/30 03:21:14;;;;;;;15.95;12.27;;;13.20;91.20;;;;;;4923917;29;20043;-80
2023/08/30 03:23:41;;;;;;;15.77;12.30;;;13.30;91.20;;;;;;4939505;29;20043;-79
2023/08/30 03:26:15;;;;;;;14.07;12.48;;;13.30;91.10;;;;;;4939293;28;20036;-79
2023/08/30 03:28:41;;;;;;;;;;;13.40;90.80;;;;;;4939664;29;20047;-79
2023/08/30 03:31:14;;;;;;;14.32;12.35;;;13.40;91.00;;;;;;4939221;29;20119;-79
2023/08/30 03:33:43;;;;;;;14.57;12.52;;;13.50;90.70;;;;;;4907141;29;20439;-79
2023/08/30 03:36:11;;;;;;;13.65;11.25;;;13.50;90.60;;;;;;4907977;29;20043;-80
2023/08/30 03:38:37;;;;;;;17.17;12.75;;;13.60;90.40;;;;;;4939075;29;20054;-79
2023/08/30 03:41:04;;;;;;;17.33;13.38;;;13.60;90.40;;;;;;4923186;29;20050;-79
2023/08/30 03:43:30;;;;;;;16.58;13.35;;;13.60;90.40;;;;;;4923492;29;20121;-80
2023/08/30 03:45:56;;;;;;;17.65;13.80;;;13.60;90.20;;;;;;4892045;29;20043;-81
2023/08/30 03:48:22;;;;;;;15.70;13.65;;;13.60;90.70;;;;;;4907383;29;20050;-80
2023/08/30 03:50:47;;;;;;;17.55;14.55;;;13.60;90.70;;;;;;4937995;29;20047;-81
2023/08/30 03:53:13;;;;;;;15.88;13.90;;;13.60;90.70;;;;;;4891827;29;20039;-80
2023/08/30 03:55:40;;;;;;;18.25;14.32;;;13.60;90.90;;;;;;4891985;29;20070;-80
2023/08/30 03:58:05;;;;;;;18.42;13.90;;;13.60;91.30;;;;;;4891602;29;20039;-79
2023/08/30 04:00:31;;;;;;;19.17;15.10;;;13.60;91.30;;;;;;4922939;29;20050;-80
2023/08/30 04:02:57;;;;;;;15.88;14.15;;;13.50;91.60;;;;;;4938707;29;20051;-80
2023/08/30 04:05:23;;;;;;;18.23;14.77;;;13.50;91.70;;;;;;4923081;28;20522;-81
2023/08/30 04:07:48;;;;;;;19.90;15.57;;;13.50;91.70;;;;;;4906053;29;20046;-79
2023/08/30 04:10:14;;;;;;;19.02;15.48;;;13.50;92.10;;;;;;4891369;29;20117;-80
2023/08/30 04:12:40;;;;;;;19.08;15.00;;;13.50;92.30;;;;;;4922900;29;20031;-79
2023/08/30 04:15:06;;;;;;;17.73;15.73;;;13.50;92.30;;;;;;4907100;29;20495;-80
2023/08/30 04:17:31;;;;;;;19.45;15.80;;;13.40;92.20;;;;;;4906961;29;20495;-80
2023/08/30 04:19:57;;;;;;;16.50;14.43;;;13.50;92.20;;;;;;4938405;29;20046;-82
2023/08/30 04:22:24;;;;;;;18.25;13.93;;;13.50;91.90;;;;;;4938279;28;20058;-80
2023/08/30 04:24:49;;;;;;;17.92;12.98;;;13.50;91.90;;;;;;4906851;29;20047;-80
2023/08/30 04:27:15;;;;;;;18.90;15.77;;;13.50;91.60;;;;;;4922566;29;20039;-80
2023/08/30 04:29:44;;;;;;;21.95;15.75;;;13.50;91.60;;;;;;4922715;29;20069;-79
2023/08/30 04:32:10;;;;;;;18.88;15.75;;;13.50;92.10;;;;;;4891979;29;20138;-80
2023/08/30 04:34:36;;;;;;;19.73;15.60;;;13.50;92.20;;;;;;4938447;29;20130;-80
2023/08/30 04:37:03;;;;;;;16.45;14.68;;;13.50;92.10;;;;;;4922461;28;20043;-79
2023/08/30 04:39:28;;;;;;;19.33;15.10;;;13.50;92.00;;;;;;4891052;29;20047;-79
2023/08/30 04:41:55;;;;;;;19.95;13.68;;;13.50;92.10;;;;;;4918301;29;20127;-80
2023/08/30 04:44:24;;;;;;;18.90;14.98;;;13.60;92.10;;;;;;4888099;29;20107;-80
2023/08/30 04:46:50;;;;;;;20.95;15.50;;;13.50;92.10;;;;;;4903705;29;20043;-80
2023/08/30 04:49:16;;;;;;;19.77;14.65;;;13.60;92.10;;;;;;4903160;29;20089;-80
2023/08/30 04:51:42;;;;;;;17.48;14.40;;;13.60;91.90;;;;;;4902829;29;20074;-80
2023/08/30 04:54:07;;;;;;;19.35;14.30;;;13.50;92.10;;;;;;4886933;29;20079;-80
2023/08/30 04:56:33;;;;;;;19.42;14.27;;;13.50;91.90;;;;;;4902607;29;20508;-80
2023/08/30 04:58:59;;;;;;;18.48;13.07;;;13.60;91.90;;;;;;4914098;29;20054;-80
2023/08/30 05:01:24;;;;;;;17.58;14.07;;;13.60;91.90;;;;;;4890219;29;20039;-80
2023/08/30 05:03:50;;;;;;;17.92;15.20;;;13.60;91.80;;;;;;4921338;28;20134;-79
2023/08/30 05:06:16;;;;;;;18.58;15.05;;;13.60;91.90;;;;;;4906368;29;20043;-80
2023/08/30 05:08:42;;;;;;;17.17;15.05;;;13.60;92.10;;;;;;4906281;29;20475;-80
2023/08/30 05:11:08;;;;;;;19.00;15.07;;;13.50;92.10;;;;;;4922024;29;20510;-80
2023/08/30 05:13:33;;;;;;;17.15;14.65;;;13.60;92.10;;;;;;4937935;29;20043;-80
2023/08/30 05:15:59;;;;;;;17.85;14.43;;;13.60;92.30;;;;;;4905495;29;20554;-79
2023/08/30 05:18:25;;;;;;;18.08;15.68;;;13.60;92.20;;;;;;4937549;29;20051;-79
2023/08/30 05:20:50;;;;;;;17.48;14.68;;;13.60;92.40;;;;;;4937982;29;20146;-80
2023/08/30 05:23:16;;;;;;;17.75;14.95;;;13.60;92.10;;;;;;4921834;29;20435;-80
2023/08/30 05:25:42;;;;;;;19.00;14.32;;;13.70;92.20;;;;;;4921780;29;20051;-80
2023/08/30 05:28:08;;;;;;;20.08;14.00;;;13.70;91.90;;;;;;4922118;29;20039;-80
2023/08/30 05:30:33;;;;;;;22.67;15.52;;;13.70;92.00;;;;;;4905377;28;20479;-79
2023/08/30 05:32:59;;;;;;;15.98;13.57;;;13.70;91.90;;;;;;4922216;29;20141;-80
2023/08/30 05:35:24;;;;;;;21.35;15.63;;;13.70;91.70;;;;;;4922080;29;20043;-79
2023/08/30 05:37:50;;;;;;;18.63;14.43;;;13.80;91.70;;;;;;4905946;29;20414;-80
2023/08/30 05:40:17;;;;;;;17.40;14.10;;;13.80;91.60;;;;;;4922084;29;20035;-80
2023/08/30 05:42:42;;;;;;;20.77;14.15;;;13.80;91.60;;;;;;4921624;29;20075;-80
2023/08/30 05:45:09;;;;;;;18.27;14.55;;;13.90;91.40;;;;;;4921844;29;20077;-81
2023/08/30 05:47:34;;;;;;;18.77;14.63;;;13.90;91.10;;;;;;4936474;29;20047;-79
2023/08/30 05:50:00;;;;;;;20.27;15.13;;;13.80;91.10;;;;;;4921891;29;20047;-79
2023/08/30 05:52:26;;;;;;;17.70;15.10;;;13.90;91.20;;;;;;4937622;29;20479;-79
2023/08/30 05:54:51;;;;;;;19.95;14.77;;;13.90;91.00;;;;;;4921530;29;20051;-78
2023/08/30 05:57:17;;;;;;;15.90;13.82;;;13.90;91.00;;;;;;4937468;29;20207;-79
2023/08/30 05:59:43;;;;;;;16.80;14.07;;;13.90;90.80;;;;;;4921380;29;20047;-80
2023/08/30 06:02:08;;;;;;;18.35;14.07;;;13.90;90.70;;;;;;4936336;28;20055;-79
2023/08/30 06:04:34;;;;;;;16.15;13.38;;;14.00;90.50;;;;;;4939008;28;20057;-80
2023/08/30 06:07:00;;;;;;;18.48;14.30;;;13.90;90.40;;;;;;4940729;29;20398;-79
2023/08/30 06:09:26;;;;;;;18.67;13.93;;;14.00;90.30;;;;;;4924874;29;20110;-78
2023/08/30 06:11:51;;;;;;;15.20;13.48;;;14.00;90.30;;;;;;4893460;29;20043;-79
2023/08/30 06:14:17;;;;;;;16.70;14.00;;;14.00;90.20;;;;;;4940544;29;20051;-78
2023/08/30 06:16:44;;;;;;;20.15;14.38;;;14.00;90.30;;;;;;4924067;28;20043;-77
2023/08/30 06:19:11;;;;;;;20.38;15.25;;;14.00;90.40;;;;;;4940338;28;20054;-79
2023/08/30 06:21:36;;;;;;;15.75;13.68;;;14.00;90.20;;;;;;4940611;29;20082;-80
2023/08/30 06:24:03;;;;;;;18.85;14.60;;;14.00;90.20;;;;;;4893235;29;20066;-79
2023/08/30 06:26:28;;;;;;;16.10;14.25;;;14.00;90.00;;;;;;4924850;29;20051;-79
2023/08/30 06:28:54;;;;;;;19.35;13.80;;;14.00;89.90;;;;;;4924654;29;20046;-80
2023/08/30 06:31:20;;;;;;;18.10;14.13;;;14.00;89.70;;;;;;4924492;29;20435;-78
2023/08/30 06:33:46;;;;;;;16.25;13.70;;;14.00;89.70;;;;;;4923074;29;20047;-77
2023/08/30 06:36:15;;;;;;;16.63;13.13;;;14.00;89.60;;;;;;4924551;29;20057;-80
2023/08/30 06:38:41;;;;;;;17.13;13.48;;;14.10;89.50;;;;;;4924176;29;20058;-79
2023/08/30 06:41:07;;;;;;;17.15;12.82;;;14.20;89.00;;;;;;4924520;29;20128;-81
2023/08/30 06:43:33;;;;;;;16.58;12.65;;;14.30;88.80;;;;;;4956488;29;20124;-78
2023/08/30 06:45:59;;;;;;;16.58;12.68;;;14.40;88.50;;;;;;4924355;29;20040;-78
2023/08/30 06:48:25;;;;;;;15.82;12.93;;;14.60;88.40;;;;;;4938539;29;20587;-79
2023/08/30 06:50:50;;;;;;;19.98;13.55;;;14.70;87.90;;;;;;4908571;29;20130;-79
2023/08/30 06:53:16;;;;;;;14.57;12.85;;;14.80;87.90;;;;;;4924024;29;20050;-79
2023/08/30 06:55:42;;;;;;;16.52;12.80;;;15.00;87.00;;;;;;4923730;29;20043;-78
2023/08/30 06:58:07;;;;;;;14.07;11.57;;;15.00;86.90;;;;;;4971685;28;20095;-79
2023/08/30 07:00:33;;;;;;;19.73;11.75;;;15.10;86.50;;;;;;4955584;28;20039;-78
2023/08/30 07:02:59;;;;;;;19.00;12.95;;;15.20;86.60;;;;;;4939558;29;20182;-78
2023/08/30 07:05:25;;;;;;;13.93;11.75;;;15.20;85.90;;;;;;4939611;29;20093;-79
2023/08/30 07:07:50;;;;;;;16.90;12.30;;;15.30;86.30;;;;;;4955616;29;20211;-78
2023/08/30 07:10:16;;;;;;;16.30;12.13;;;15.30;86.00;;;;;;4939895;29;20041;-79
2023/08/30 07:12:42;;;;;;;18.52;11.82;;;15.30;84.90;;;;;;4955553;28;20514;-79
2023/08/30 07:15:08;;;;;;;17.60;12.55;;;15.30;85.30;;;;;;4939180;28;20047;-79
2023/08/30 07:17:34;;;;;;;15.57;11.15;;;15.40;85.40;;;;;;4922906;29;20043;-78
2023/08/30 07:20:01;;;;;;;14.10;11.57;;;15.30;84.70;;;;;;4955299;29;20035;-78
2023/08/30 07:22:26;;;;;;;15.57;11.27;;;15.40;85.00;;;;;;4939411;29;20058;-79
2023/08/30 07:24:52;;;;;;;15.90;11.25;;;15.40;83.80;;;;;;4948440;29;20094;-78
2023/08/30 07:27:18;;;;;;;13.85;11.38;;;15.40;84.40;;;;;;4945337;29;20122;-78
2023/08/30 07:29:43;;;;;;;13.98;11.07;;;15.50;84.30;;;;;;4931016;29;20043;-78
2023/08/30 07:32:09;;;;;;;14.75;11.82;;;15.50;83.80;;;;;;4930956;28;20411;-79
2023/08/30 07:34:35;;;;;;;15.93;11.88;;;15.50;84.00;;;;;;4939161;29;20047;-78
2023/08/30 07:37:01;;;;;;;15.45;10.70;;;15.50;83.80;;;;;;4939523;29;20070;-78
2023/08/30 07:39:27;;;;;;;12.40;10.30;;;15.60;83.10;;;;;;4962488;28;20051;-80
2023/08/30 07:41:53;;;;;;;16.42;11.30;;;15.50;83.10;;;;;;4926066;28;20522;-79
2023/08/30 07:44:20;;;;;;;15.55;10.85;;;15.60;83.30;;;;;;4896750;28;20035;-79
2023/08/30 07:46:46;;;;;;;12.40;11.02;;;15.60;82.90;;;;;;4925022;28;20105;-79
2023/08/30 07:49:12;;;;;;;14.65;10.43;;;15.60;83.30;;;;;;4921380;28;20118;-79
2023/08/30 07:51:37;;;;;;;13.60;10.95;;;15.60;83.20;;;;;;4940590;28;20475;-80
2023/08/30 07:54:03;;;;;;;14.13;10.88;;;15.70;83.30;;;;;;4921569;28;20158;-80
2023/08/30 07:56:29;;;;;;;14.50;11.20;;;15.80;83.10;;;;;;4913145;28;20051;-79
2023/08/30 07:58:57;;;;;;;18.85;10.85;;;16.00;83.00;;;;;;4912441;28;20491;-79
2023/08/30 08:01:22;;;;;;;12.52;10.70;;;16.00;82.70;;;;;;4942930;28;20462;-79
2023/08/30 08:03:48;;;;;;;17.17;11.45;;;16.20;82.60;;;;;;4926955;28;20061;-79
2023/08/30 08:06:14;;;;;;;14.73;10.85;;;16.20;82.30;;;;;;4942281;28;20046;-79
2023/08/30 08:08:39;;;;;;;13.88;10.90;;;16.20;81.90;;;;;;4912391;28;20083;-80
2023/08/30 08:11:05;;;;;;;16.65;11.25;;;16.40;82.20;;;;;;4923083;28;20046;-79
2023/08/30 08:13:31;;;;;;;14.38;11.70;;;16.50;82.20;;;;;;4923114;28;20043;-80
2023/08/30 08:15:57;;;;;;;14.32;10.95;;;16.60;81.70;;;;;;4927207;28;20058;-80
2023/08/30 08:18:23;;;;;;;16.17;10.77;;;16.60;81.90;;;;;;4922660;28;20121;-82
2023/08/30 08:20:50;;;;;;;15.98;11.30;;;16.70;81.90;;;;;;4922142;28;20043;-82
2023/08/30 08:23:15;;;;;;;12.32;10.35;;;16.60;82.00;;;;;;4924514;28;20045;-81
2023/08/30 08:25:41;;;;;;;14.02;10.82;;;16.60;82.20;;;;;;4906728;28;20044;-81
2023/08/30 08:28:07;;;;;;;12.75;9.85;;;16.50;81.60;;;;;;4921563;28;20081;-80
2023/08/30 08:30:32;;;;;;;14.57;9.98;;;16.50;82.40;;;;;;4903883;28;20050;-80
2023/08/30 08:32:58;;;;;;;11.02;8.05;;;16.50;82.10;;;;;;4922804;28;20395;-79
2023/08/30 08:35:24;;;;;;;14.15;8.85;;;16.50;81.90;;;;;;4920340;28;20051;-80
2023/08/30 08:37:50;;;;;;;10.77;8.60;;;16.40;81.40;;;;;;4922575;28;20047;-80
2023/08/30 08:40:16;;;;;;;12.98;9.60;;;16.40;81.20;;;;;;4889630;28;20070;-80
2023/08/30 08:42:43;;;;;;;14.07;10.05;;;16.40;81.60;;;;;;4921418;28;20507;-81
2023/08/30 08:45:11;;;;;;;9.65;7.93;;;16.40;82.30;;;;;;4923902;28;20483;-80
2023/08/30 08:47:38;;;;;;;11.07;8.43;;;16.30;82.70;;;;;;4915996;28;20064;-80
2023/08/30 08:50:04;;;;;;;13.07;7.75;;;16.20;82.60;;;;;;4922785;28;20039;-81
2023/08/30 08:52:30;;;;;;;12.82;9.40;;;16.10;82.70;;;;;;4942289;28;20035;-82
2023/08/30 08:54:59;;;;;;;12.52;8.20;;;16.00;83.10;;;;;;4939759;28;20046;-81
2023/08/30 08:57:26;;;;;;;9.63;7.63;;;16.00;83.20;;;;;;4943562;28;20047;-80
2023/08/30 08:59:52;;;;;;;14.55;8.85;;;16.00;83.80;;;;;;4941713;28;20047;-79
2023/08/30 09:02:18;;;;;;;11.55;8.65;;;16.00;84.10;;;;;;4914211;28;20066;-80
2023/08/30 09:04:44;;;;;;;10.90;8.73;;;16.10;84.40;;;;;;4949307;28;20040;-79
2023/08/30 09:07:10;;;;;;;13.38;8.77;;;16.10;84.80;;;;;;4930179;28;20404;-79
2023/08/30 09:09:36;;;;;;;14.95;9.15;;;16.10;85.00;;;;;;4929814;28;20858;-79
2023/08/30 09:12:03;;;;;;;14.05;9.98;;;16.10;85.20;;;;;;4951405;28;20046;-79
2023/08/30 09:14:28;;;;;;;14.30;8.70;;;16.10;85.50;;;;;;4928485;28;20051;-80
2023/08/30 09:17:00;;;;;;;11.43;8.52;;;16.10;85.20;;;;;;4943349;28;20073;-81
2023/08/30 09:19:26;;;;;;;13.25;8.45;;;16.10;85.10;;;;;;4916754;28;20057;-82
2023/08/30 09:21:56;;;;;;;10.05;8.77;;;16.10;84.80;;;;;;4923618;28;20043;-81
2023/08/30 09:24:22;;;;;;;10.90;9.05;;;16.00;84.80;;;;;;4907774;29;20495;-79
2023/08/30 09:26:54;;;;;;;10.90;8.05;;;16.10;84.50;;;;;;4908417;28;20059;-80
2023/08/30 09:29:23;;;;;;;9.25;8.02;;;16.00;84.60;;;;;;4904182;28;20487;-80
2023/08/30 09:31:53;;;;;;;10.75;8.00;;;16.00;84.40;;;;;;4923054;28;20576;-80
2023/08/30 09:34:25;;;;;;;9.35;6.78;;;16.00;84.50;;;;;;4922289;28;20582;-80
2023/08/30 09:36:52;;;;;;;10.00;7.32;;;16.00;84.50;;;;;;4908212;28;20806;-80
2023/08/30 09:39:18;;;;;;;10.85;7.97;;;15.90;84.40;;;;;;4940265;28;20043;-80
2023/08/30 09:41:50;;;;;;;11.05;8.88;;;15.90;84.70;;;;;;4923338;28;20501;-81
2023/08/30 09:44:21;;;;;;;11.30;8.25;;;15.80;85.20;;;;;;4948207;28;20110;-80
2023/08/30 09:46:56;;;;;;;12.52;9.38;;;15.70;86.30;;;;;;4925105;28;20525;-80
2023/08/30 09:49:26;;;;;;;10.88;8.95;;;15.70;86.30;;;;;;4939073;28;20051;-81
2023/08/30 09:51:53;;;;;;;12.00;9.43;;;15.70;86.40;;;;;;4904546;28;20051;-81
2023/08/30 09:54:21;;;;;;;12.55;10.10;;;15.70;86.40;;;;;;4928113;28;20057;-81
2023/08/30 09:56:47;;;;;;;11.75;9.93;;;15.70;87.20;;;;;;4914685;28;20045;-81
2023/08/30 09:59:14;;;;;;;12.57;10.07;;;15.60;87.00;;;;;;4922708;28;20050;-80
2023/08/30 10:01:42;;;;;;;15.52;11.43;;;15.60;87.40;;;;;;4929405;28;20054;-82
2023/08/30 10:04:09;;;;;;;15.48;11.23;;;15.60;87.50;;;;;;4926045;28;20141;-80
2023/08/30 10:06:36;;;;;;;12.25;10.85;;;15.60;88.20;;;;;;4928008;28;20046;-80
2023/08/30 10:09:04;;;;;;;13.65;11.35;;;15.70;87.80;;;;;;4925091;28;20066;-80
2023/08/30 10:11:33;;;;;;;14.23;11.23;;;15.70;89.10;;;;;;4939075;28;20043;-81
2023/08/30 10:14:00;;;;;;;14.50;10.80;;;15.70;89.20;;;;;;4927924;28;20533;-80
2023/08/30 10:16:27;;;;;;;12.43;10.10;;;15.70;88.70;;;;;;4941150;28;20047;-81
2023/08/30 10:19:07;;;;;;;10.77;9.00;;;15.70;89.30;;;;;;4896608;28;20049;-81
2023/08/30 10:21:35;;;;;;;11.40;9.57;;;15.60;88.90;;;;;;4938884;28;20131;-81
2023/08/30 10:24:03;;;;;;;13.23;9.35;;;15.50;89.20;;;;;;4929792;28;20042;-80
2023/08/30 10:26:30;;;;;;;11.15;9.27;;;15.60;88.90;;;;;;4927457;28;20042;-79
2023/08/30 10:28:58;;;;;;;10.93;8.88;;;15.50;88.70;;;;;;4927678;28;20046;-81
2023/08/30 10:31:23;;;;;;;9.95;8.88;;;15.50;88.30;;;;;;4941870;28;20054;-80
2023/08/30 10:33:50;;;;;;;12.30;8.70;;;15.50;88.80;;;;;;4926938;28;20097;-80
2023/08/30 10:36:26;;;;;;;12.05;9.02;;;15.50;88.80;;;;;;4943983;28;20072;-80
2023/08/30 10:38:53;;;;;;;12.23;9.13;;;15.50;89.00;;;;;;4941518;28;20399;-81
2023/08/30 10:41:24;;;;;;;12.48;9.02;;;15.40;89.60;;;;;;4927454;28;20051;-81
2023/08/30 10:43:55;;;;;;;11.77;9.25;;;15.40;89.70;;;;;;4941133;28;20077;-81
2023/08/30 10:46:32;;;;;;;11.95;9.68;;;15.40;90.10;;;;;;4925515;28;20621;-80
2023/08/30 10:49:11;;;;;;;13.45;10.27;;;15.40;89.80;;;;;;4929517;28;20052;-81
2023/08/30 10:51:41;;;;;;;11.57;9.07;;;15.50;90.30;;;;;;4939566;28;20455;-81
2023/08/30 10:54:15;;;;;;;10.70;9.18;;;15.50;90.20;;;;;;4920087;28;20039;-80
2023/08/30 10:57:01;;;;;;;11.98;9.55;;;15.60;89.80;;;;;;4922687;28;20057;-78
2023/08/30 10:59:29;;;;;;;11.27;9.95;;;15.70;89.60;;;;;;4909850;28;20050;-81
2023/08/30 11:01:58;;;;;;;12.02;9.90;;;15.70;89.60;;;;;;4911680;28;20049;-80
2023/08/30 11:04:24;;;;;;;12.77;10.43;;;15.70;89.40;;;;;;4944263;28;20039;-80
2023/08/30 11:06:51;;;;;;;13.45;10.40;;;15.80;89.50;;;;;;4928963;28;20047;-80
2023/08/30 11:09:20;;;;;;;11.98;8.40;;;15.80;89.40;;;;;;4911302;28;20043;-81
2023/08/30 11:11:47;;;;;;;12.73;9.65;;;15.90;89.40;;;;;;4942353;28;20043;-79
2023/08/30 11:14:13;;;;;;;11.13;9.88;;;15.90;89.30;;;;;;4928394;28;20053;-80
2023/08/30 11:16:39;;;;;;;10.98;9.38;;;15.80;89.20;;;;;;4945721;29;20043;-79
2023/08/30 11:19:06;;;;;;;18.42;10.38;;;15.80;89.20;;;;;;4940985;28;20054;-80
2023/08/30 11:21:40;;;;;;;11.82;10.20;;;15.80;89.20;;;;;;4946852;28;20043;-81
2023/08/30 11:24:07;;;;;;;10.32;8.07;;;15.80;89.10;;;;;;4932313;28;20050;-79
2023/08/30 11:26:33;;;;;;;9.95;8.65;;;15.80;89.10;;;;;;4943818;29;20035;-80
2023/08/30 11:29:08;;;;;;;8.95;8.05;;;15.70;89.00;;;;;;4924303;29;20090;-81
2023/08/30 11:31:34;;;;;;;15.05;10.63;;;15.80;89.10;;;;;;4908660;29;20553;-82
2023/08/30 11:34:00;;;;;;;6.63;5.22;;;15.70;88.80;;;;;;4940047;29;20431;-83
2023/08/30 11:36:31;;;;;;;7.30;6.45;;;15.70;89.00;;;;;;4940450;29;20376;-81
2023/08/30 11:38:58;;;;;;;10.77;9.48;;;15.50;89.00;;;;;;4939564;29;20039;-82
2023/08/30 11:41:25;;;;;;;12.82;9.73;;;15.60;89.20;;;;;;4940092;29;20435;-82
2023/08/30 11:43:51;;;;;;;15.00;10.98;;;15.50;89.20;;;;;;4923568;29;20060;-83
2023/08/30 11:46:18;;;;;;;14.20;11.57;;;15.40;89.50;;;;;;4923713;29;20074;-81
2023/08/30 11:48:45;;;;;;;16.30;12.88;;;15.40;89.70;;;;;;4939866;29;20089;-81
2023/08/30 11:51:11;;;;;;;14.32;11.15;;;15.40;89.90;;;;;;4939708;29;20043;-82
2023/08/30 11:53:38;;;;;;;14.70;12.35;;;15.40;90.10;;;;;;4908096;29;20130;-83
2023/08/30 11:56:05;;;;;;;15.13;11.93;;;15.40;90.30;;;;;;4939520;29;20403;-80
2023/08/30 11:58:35;;;;;;;15.82;12.48;;;15.40;90.50;;;;;;4923485;29;20078;-83
2023/08/30 12:01:04;;;;;;;13.65;12.05;;;15.40;90.60;;;;;;4908062;29;20053;-83
2023/08/30 12:03:31;;;;;;;16.65;13.32;;;15.40;90.70;;;;;;4923352;29;20058;-83
2023/08/30 12:05:57;;;;;;;15.00;12.88;;;15.40;90.90;;;;;;4908231;29;20090;-81
2023/08/30 12:08:24;;;;;;;16.30;12.88;;;15.50;91.10;;;;;;4923545;29;20047;-82
2023/08/30 12:10:51;;;;;;;14.80;12.80;;;15.50;91.10;;;;;;4923292;29;20129;-81
2023/08/30 12:13:24;;;;;;;15.30;13.10;;;15.50;91.10;;;;;;4938967;29;20043;-80
2023/08/30 12:15:54;;;;;;;15.85;12.60;;;15.60;91.70;;;;;;4939405;29;20403;-79
2023/08/30 12:18:27;;;;;;;13.40;12.00;;;15.60;91.70;;;;;;4923295;29;20082;-80
2023/08/30 12:21:01;;;;;;;13.77;11.13;;;15.60;91.50;;;;;;4923651;29;20377;-81
2023/08/30 12:23:29;;;;;;;11.25;9.80;;;15.70;91.50;;;;;;4907469;28;20050;-81
2023/08/30 12:26:06;;;;;;;10.68;9.63;;;15.70;91.50;;;;;;4905140;28;20043;-83
2023/08/30 12:28:39;;;;;;;10.55;9.40;;;15.80;91.50;;;;;;4920551;29;20123;-81
2023/08/30 12:31:06;;;;;;;9.50;7.18;;;15.90;91.50;;;;;;4905160;29;20098;-81